Time;durP1;ratioP1;P1;durP2;ratioP2;P2;SDS_P1;SDS_P2;PMS_P1;PMS_P2;Temp;Humidity;BMP_temperature;BMP_pressure;BME280_temperature;BME280_humidity;BME280_pressure;Samples;Min_cycle;Max_cycle;Signal;HPM_P1;HPM_P2
2022/04/14 00:01:56;;;;;;;11.68;7.55;;;;;;;10.79;100.00;101912.38;4937595;28;20054;-81
2022/04/14 00:04:24;;;;;;;13.88;8.40;;;;;;;10.78;100.00;101916.75;4947494;28;20032;-81
2022/04/14 00:06:53;;;;;;;14.05;7.05;;;;;;;10.77;100.00;101914.97;4958128;28;20048;-81
2022/04/14 00:09:22;;;;;;;14.40;7.35;;;;;;;10.76;100.00;101910.56;4949434;28;20276;-81
2022/04/14 00:11:50;;;;;;;11.93;7.20;;;;;;;10.75;100.00;101907.91;4952684;29;20074;-81
2022/04/14 00:14:18;;;;;;;8.95;7.47;;;;;;;10.73;100.00;101908.75;4913099;28;20035;-80
2022/04/14 00:16:47;;;;;;;15.35;7.57;;;;;;;10.70;100.00;101905.19;4952766;29;20504;-80
2022/04/14 00:19:15;;;;;;;8.45;6.78;;;;;;;10.68;100.00;101909.50;4945204;28;20254;-81
2022/04/14 00:21:44;;;;;;;10.85;7.30;;;;;;;10.66;100.00;101912.16;4951067;28;20055;-80
2022/04/14 00:24:12;;;;;;;12.20;7.75;;;;;;;10.64;100.00;101910.31;4950097;28;20039;-81
2022/04/14 00:26:41;;;;;;;14.57;8.45;;;;;;;10.62;100.00;101912.91;4939941;28;20120;-81
2022/04/14 00:29:09;;;;;;;12.02;7.88;;;;;;;10.61;100.00;101907.63;4917186;29;20036;-82
2022/04/14 00:31:37;;;;;;;9.65;7.95;;;;;;;10.60;100.00;101909.34;4890146;29;20047;-81
2022/04/14 00:34:06;;;;;;;13.32;8.50;;;;;;;10.56;100.00;101910.16;4945799;28;20047;-82
2022/04/14 00:36:34;;;;;;;11.95;8.43;;;;;;;10.53;100.00;101903.09;4962583;28;20090;-82
2022/04/14 00:39:03;;;;;;;13.00;8.48;;;;;;;10.52;100.00;101903.94;4933718;29;20047;-82
2022/04/14 00:41:31;;;;;;;11.25;8.27;;;;;;;10.50;100.00;101907.41;4940864;29;20511;-81
2022/04/14 00:44:00;;;;;;;15.07;8.15;;;;;;;10.48;100.00;101912.66;4931622;28;20047;-79
2022/04/14 00:46:29;;;;;;;14.77;9.02;;;;;;;10.47;100.00;101910.88;4902193;28;20596;-79
2022/04/14 00:48:58;;;;;;;13.95;8.20;;;;;;;10.46;100.00;101909.09;4935273;29;20044;-82
2022/04/14 00:51:27;;;;;;;14.10;8.73;;;;;;;10.45;100.00;101912.59;4949281;28;20363;-81
2022/04/14 00:53:55;;;;;;;10.07;8.40;;;;;;;10.45;100.00;101912.59;4950795;28;20052;-79
2022/04/14 00:56:23;;;;;;;12.40;9.05;;;;;;;10.45;100.00;101907.34;4902916;29;20055;-80
2022/04/14 00:58:52;;;;;;;17.02;8.98;;;;;;;10.43;100.00;101903.75;4933428;29;20043;-80
2022/04/14 01:01:20;;;;;;;12.98;8.30;;;;;;;10.43;100.00;101902.88;4897091;28;20235;-77
2022/04/14 01:03:51;;;;;;;12.38;8.45;;;;;;;10.42;100.00;101915.16;4934217;29;20051;-77
2022/04/14 01:06:22;;;;;;;15.00;9.40;;;;;;;10.40;100.00;101914.25;4931458;29;20269;-77
2022/04/14 01:11:40;;;;;;;16.08;9.50;;;;;;;10.36;100.00;101922.94;4951372;28;20050;-77
2022/04/14 01:14:18;;;;;;;17.90;9.60;;;;;;;10.35;100.00;101931.69;4948097;28;20047;-78
2022/04/14 01:16:47;;;;;;;18.83;9.80;;;;;;;10.31;100.00;101925.47;4907696;28;20031;-77
2022/04/14 01:19:16;;;;;;;19.55;10.45;;;;;;;10.29;100.00;101926.25;4947901;28;20058;-78
2022/04/14 01:21:56;;;;;;;16.60;10.23;;;;;;;10.26;100.00;101931.47;4961437;28;20404;-77
2022/04/14 01:24:25;;;;;;;15.88;9.68;;;;;;;10.24;100.00;101931.41;4931957;29;20047;-77
2022/04/14 01:26:54;;;;;;;15.00;9.40;;;;;;;10.22;100.00;101924.34;4950606;28;20046;-77
2022/04/14 01:29:24;;;;;;;15.20;9.52;;;;;;;10.20;100.00;101920.78;4928619;29;20114;-77
2022/04/14 01:31:54;;;;;;;18.30;11.05;;;;;;;10.18;100.00;101933.03;4903576;29;20046;-77
2022/04/14 01:34:23;;;;;;;14.27;10.18;;;;;;;10.15;100.00;101918.94;4913499;29;20604;-77
2022/04/14 01:36:52;;;;;;;13.60;10.10;;;;;;;10.12;100.00;101921.50;4928580;28;20065;-77
2022/04/14 01:39:20;;;;;;;14.48;10.38;;;;;;;10.08;100.00;101927.56;4943510;29;20249;-77
2022/04/14 01:41:48;;;;;;;14.38;11.27;;;;;;;10.07;100.00;101924.91;4907047;29;20047;-77
2022/04/14 01:44:17;;;;;;;14.15;11.15;;;;;;;10.04;100.00;101935.38;4962601;28;20054;-77
2022/04/14 01:46:45;;;;;;;17.27;12.05;;;;;;;10.03;100.00;101928.31;4932836;28;20035;-77
2022/04/14 01:49:14;;;;;;;21.10;10.50;;;;;;;9.99;100.00;101931.75;4923188;28;20051;-78
2022/04/14 01:51:42;;;;;;;15.25;10.70;;;;;;;9.97;100.00;101938.72;4916176;29;20047;-77
2022/04/14 01:54:10;;;;;;;21.00;11.90;;;;;;;9.94;100.00;101939.50;4927539;29;20051;-78
2022/04/14 01:56:40;;;;;;;16.58;11.20;;;;;;;9.91;100.00;101940.34;4949345;29;20036;-77
2022/04/14 01:59:09;;;;;;;19.40;14.30;;;;;;;9.88;100.00;101942.91;4931298;29;20054;-78
2022/04/14 02:01:37;;;;;;;20.38;14.73;;;;;;;9.87;100.00;101940.25;4957238;28;20039;-77
2022/04/14 02:04:07;;;;;;;23.98;13.18;;;;;;;9.85;100.00;101949.81;4918891;28;20051;-78
2022/04/14 02:06:36;;;;;;;21.50;13.45;;;;;;;9.82;100.00;101945.38;4932786;29;20036;-77
2022/04/14 02:09:04;;;;;;;20.10;14.65;;;;;;;9.79;100.00;101941.78;4923666;29;20047;-78
2022/04/14 02:11:33;;;;;;;23.75;15.15;;;;;;;9.75;100.00;101939.09;4948515;28;20607;-77
2022/04/14 02:14:02;;;;;;;18.95;14.32;;;;;;;9.73;100.00;101939.91;4931875;29;20528;-77
2022/04/14 02:16:30;;;;;;;24.30;16.02;;;;;;;9.70;100.00;101929.31;4939168;28;20306;-77
2022/04/14 02:18:59;;;;;;;23.05;15.40;;;;;;;9.68;100.00;101931.91;4959698;28;20051;-77
2022/04/14 02:21:27;;;;;;;24.98;16.65;;;;;;;9.66;100.00;101928.34;4947898;28;20071;-77
2022/04/14 02:23:55;;;;;;;19.05;15.60;;;;;;;9.64;100.00;101934.41;4950205;28;20076;-78
2022/04/14 02:26:24;;;;;;;21.00;15.00;;;;;;;9.62;100.00;101936.13;4947164;28;20272;-77
2022/04/14 02:28:54;;;;;;;22.23;14.43;;;;;;;9.62;100.00;101936.13;4936532;28;20405;-77
2022/04/14 02:31:22;;;;;;;24.08;14.77;;;;;;;9.60;100.00;101943.09;4913217;29;20572;-77
2022/04/14 02:33:51;;;;;;;18.67;14.98;;;;;;;9.59;100.00;101934.31;4937872;28;20043;-77
2022/04/14 02:36:19;;;;;;;20.95;15.50;;;;;;;9.56;100.00;101945.66;4905031;29;20047;-78
2022/04/14 02:38:48;;;;;;;15.52;13.57;;;;;;;9.54;100.00;101938.56;4945978;29;20043;-78
2022/04/14 02:41:16;;;;;;;29.02;15.63;;;;;;;9.50;100.00;101937.59;4915239;29;20055;-77
2022/04/14 02:43:45;;;;;;;23.58;15.65;;;;;;;9.48;100.00;101934.03;4950014;28;20058;-77
2022/04/14 02:46:14;;;;;;;21.83;14.73;;;;;;;9.45;100.00;101933.06;4930902;29;20047;-78
2022/04/14 02:48:42;;;;;;;25.85;15.52;;;;;;;9.42;100.00;101933.88;4920909;29;20043;-77
2022/04/14 02:51:13;;;;;;;24.23;16.33;;;;;;;9.39;100.00;101943.44;4925560;28;20048;-78
2022/04/14 02:53:42;;;;;;;26.35;16.27;;;;;;;9.36;100.00;101937.25;4962482;28;20051;-77
2022/04/14 02:56:10;;;;;;;20.60;15.30;;;;;;;9.36;100.00;101934.63;4947144;28;20048;-78
2022/04/14 02:58:38;;;;;;;28.10;17.17;;;;;;;9.33;100.00;101928.41;4951216;28;20055;-77
2022/04/14 03:01:07;;;;;;;23.58;15.70;;;;;;;9.29;100.00;101926.53;4946686;28;20043;-78
2022/04/14 03:03:35;;;;;;;24.35;16.35;;;;;;;9.27;100.00;101929.13;4924695;28;20531;-77
2022/04/14 03:06:05;;;;;;;21.95;15.68;;;;;;;9.24;100.00;101929.03;4963542;28;20047;-77
2022/04/14 03:08:33;;;;;;;25.33;15.48;;;;;;;9.20;100.00;101927.19;4891754;29;20455;-77
2022/04/14 03:11:02;;;;;;;22.48;16.13;;;;;;;9.16;100.00;101920.06;4931812;29;20066;-78
2022/04/14 03:13:30;;;;;;;27.88;15.68;;;;;;;9.09;100.00;101924.28;4915771;29;20047;-77
2022/04/14 03:15:59;;;;;;;22.10;15.93;;;;;;;9.05;100.00;101932.03;4932462;29;20400;-78
2022/04/14 03:18:28;;;;;;;22.98;15.82;;;;;;;9.01;100.00;101931.06;4939353;28;20051;-77
2022/04/14 03:20:57;;;;;;;26.70;17.25;;;;;;;8.97;100.00;101940.59;4917564;29;20051;-78
2022/04/14 03:23:25;;;;;;;26.42;17.25;;;;;;;8.94;100.00;101951.06;4907498;28;20093;-77
2022/04/14 03:25:54;;;;;;;23.05;16.08;;;;;;;8.93;100.00;101951.00;4951244;28;20046;-77
2022/04/14 03:28:22;;;;;;;28.00;18.40;;;;;;;8.91;100.00;101950.06;4912085;29;20048;-78
2022/04/14 03:30:51;;;;;;;24.95;16.10;;;;;;;8.88;100.00;101950.84;4915069;29;20050;-78
2022/04/14 03:33:19;;;;;;;28.00;17.00;;;;;;;8.84;100.00;101951.63;4946993;29;20043;-77
2022/04/14 03:35:48;;;;;;;22.50;16.40;;;;;;;8.78;100.00;101949.72;4926754;29;20055;-77
2022/04/14 03:38:16;;;;;;;24.02;16.65;;;;;;;8.75;100.00;101959.25;4905348;28;20526;-78
2022/04/14 03:41:07;;;;;;;23.38;17.35;;;;;;;8.70;100.00;101960.88;4946070;29;20047;-77
2022/04/14 03:43:36;;;;;;;31.42;18.98;;;;;;;8.68;100.00;101957.31;4945524;29;20067;-78
2022/04/14 03:46:04;;;;;;;27.50;18.50;;;;;;;8.65;100.00;101958.09;4930488;29;20055;-80
2022/04/14 03:48:33;;;;;;;30.85;21.20;;;;;;;8.64;100.00;101944.91;4915581;29;20051;-79
2022/04/14 03:51:01;;;;;;;32.38;19.25;;;;;;;8.61;100.00;101953.59;4924156;29;20058;-80
2022/04/14 03:53:30;;;;;;;31.27;19.73;;;;;;;8.59;100.00;101953.56;4896303;29;20547;-79
2022/04/14 03:55:58;;;;;;;36.30;21.65;;;;;;;8.58;100.00;101954.44;4921438;28;20047;-79
2022/04/14 03:58:27;;;;;;;31.85;22.02;;;;;;;8.58;100.00;101951.78;4945632;29;20039;-78
2022/04/14 04:00:55;;;;;;;29.10;20.92;;;;;;;8.56;100.00;101945.63;4954910;28;20416;-79
2022/04/14 04:03:24;;;;;;;30.10;21.05;;;;;;;8.57;100.00;101944.75;4929125;29;20264;-79
2022/04/14 04:05:53;;;;;;;36.20;23.33;;;;;;;8.56;100.00;101945.63;4921029;29;20054;-78
2022/04/14 04:08:22;;;;;;;36.28;22.90;;;;;;;8.57;100.00;101938.59;4910374;29;20075;-78
2022/04/14 04:10:50;;;;;;;35.47;22.73;;;;;;;8.54;100.00;101942.06;4885658;29;20056;-78
2022/04/14 04:13:19;;;;;;;35.55;22.08;;;;;;;8.51;100.00;101941.94;4957530;28;20265;-79
2022/04/14 04:15:47;;;;;;;34.88;21.98;;;;;;;8.48;100.00;101944.47;4928339;29;20048;-79
2022/04/14 04:18:16;;;;;;;35.47;22.63;;;;;;;8.45;100.00;101954.91;4909613;29;20226;-79
2022/04/14 04:20:45;;;;;;;35.97;21.73;;;;;;;8.43;100.00;101942.56;4921772;28;20054;-78
2022/04/14 04:23:13;;;;;;;29.85;21.45;;;;;;;8.40;100.00;101948.59;4924661;28;20043;-79
2022/04/14 04:25:42;;;;;;;32.10;22.48;;;;;;;8.37;100.00;101946.78;4924818;28;20038;-79
2022/04/14 04:28:10;;;;;;;34.65;20.77;;;;;;;8.36;100.00;101954.59;4936914;28;20032;-79
2022/04/14 04:30:40;;;;;;;35.13;21.45;;;;;;;8.32;100.00;101960.63;4933314;29;20051;-78
2022/04/14 04:33:08;;;;;;;30.58;21.63;;;;;;;8.29;100.00;101965.75;4931839;29;20054;-79
2022/04/14 04:35:37;;;;;;;38.60;22.35;;;;;;;8.27;100.00;101964.81;4950619;29;20070;-78
2022/04/14 04:38:05;;;;;;;40.25;25.20;;;;;;;8.24;100.00;101962.09;4910034;29;20043;-79
2022/04/14 04:40:34;;;;;;;35.10;22.80;;;;;;;8.20;100.00;101948.88;4928353;28;26187;-79
2022/04/14 04:43:02;;;;;;;33.42;23.20;;;;;;;8.18;100.00;101955.84;4922012;29;20058;-80
2022/04/14 04:45:31;;;;;;;33.85;23.00;;;;;;;8.16;100.00;101960.13;4918116;29;20075;-79
2022/04/14 04:48:02;;;;;;;37.95;23.85;;;;;;;8.16;100.00;101957.50;4940372;28;20019;-79
2022/04/14 04:50:31;;;;;;;35.88;23.70;;;;;;;8.15;100.00;101957.47;4918869;29;20043;-79
2022/04/14 04:52:59;;;;;;;38.72;24.15;;;;;;;8.14;100.00;101959.19;4918171;29;20375;-78
2022/04/14 04:55:29;;;;;;;39.33;24.52;;;;;;;8.14;100.00;101960.91;4911327;28;24186;-78
2022/04/14 04:57:57;;;;;;;38.15;24.48;;;;;;;8.16;100.00;101973.25;4943323;28;20036;-79
2022/04/14 05:00:25;;;;;;;42.25;25.73;;;;;;;8.17;100.00;101977.66;4948867;28;20527;-79
2022/04/14 05:02:56;;;;;;;36.28;25.65;;;;;;;8.14;100.00;101972.31;4925485;28;20056;-78
2022/04/14 05:05:25;;;;;;;42.67;26.05;;;;;;;8.11;100.00;101972.22;4938225;29;20039;-78
2022/04/14 05:07:54;;;;;;;50.75;26.98;;;;;;;8.12;100.00;101971.38;4943601;28;20067;-78
2022/04/14 05:10:22;;;;;;;45.40;28.17;;;;;;;8.13;100.00;101974.91;4929012;28;20531;-79
2022/04/14 05:12:51;;;;;;;32.33;22.73;;;;;;;8.14;100.00;101980.19;4924482;28;20039;-78
2022/04/14 05:15:21;;;;;;;45.28;28.15;;;;;;;8.17;100.00;101977.66;4935665;28;20054;-79
2022/04/14 05:17:49;;;;;;;41.25;26.55;;;;;;;8.17;100.00;101985.53;4930019;28;20055;-77
2022/04/14 05:20:18;;;;;;;49.47;29.20;;;;;;;8.16;100.00;101989.00;4941549;28;20162;-76
2022/04/14 05:22:46;;;;;;;39.35;26.90;;;;;;;8.18;100.00;101991.69;4963356;28;20106;-78
2022/04/14 05:25:15;;;;;;;50.45;28.73;;;;;;;8.19;100.00;101989.09;4926611;28;20274;-78
2022/04/14 05:27:43;;;;;;;51.15;30.25;;;;;;;8.22;100.00;101998.81;4906624;28;20388;-78
2022/04/14 05:30:12;;;;;;;54.53;32.20;;;;;;;8.26;100.00;102002.41;4913050;29;20043;-77
2022/04/14 05:32:40;;;;;;;52.72;31.95;;;;;;;8.31;100.00;102003.47;4963535;28;20066;-77
2022/04/14 05:35:14;;;;;;;40.65;28.10;;;;;;;8.37;100.00;102016.78;4960234;28;20062;-77
2022/04/14 05:37:43;;;;;;;47.63;30.42;;;;;;;8.44;100.00;102010.91;4916760;29;20496;-78
2022/04/14 05:40:12;;;;;;;59.65;34.25;;;;;;;8.50;100.00;102012.81;4938266;28;20276;-77
2022/04/14 05:42:46;;;;;;;53.42;33.10;;;;;;;8.55;100.00;102017.38;4916418;28;20047;-78
2022/04/14 05:45:15;;;;;;;55.63;33.08;;;;;;;8.59;100.00;102021.00;4934761;28;20055;-78
2022/04/14 05:47:43;;;;;;;52.65;35.40;;;;;;;8.64;100.00;102024.66;4945228;28;20042;-78
2022/04/14 05:50:12;;;;;;;55.60;33.75;;;;;;;8.68;100.00;102020.38;4948750;28;20367;-78
2022/04/14 05:52:41;;;;;;;48.80;32.30;;;;;;;8.72;100.00;102023.13;4967773;28;20066;-78
2022/04/14 05:55:10;;;;;;;51.78;35.55;;;;;;;8.78;100.00;102022.44;4912633;29;20270;-78
2022/04/14 05:57:38;;;;;;;51.30;33.90;;;;;;;8.85;100.00;102029.66;4907282;29;20374;-77
2022/04/14 06:00:07;;;;;;;49.85;34.70;;;;;;;8.91;100.00;102021.94;4933522;28;20285;-78
2022/04/14 06:02:36;;;;;;;54.03;34.97;;;;;;;8.96;100.00;102022.09;4946051;28;20058;-78
2022/04/14 06:05:05;;;;;;;53.28;36.38;;;;;;;9.03;100.00;102034.53;4918294;29;20257;-77
2022/04/14 06:07:33;;;;;;;46.65;30.00;;;;;;;9.10;100.00;102027.72;4957020;28;20043;-78
2022/04/14 06:10:02;;;;;;;58.05;34.15;;;;;;;9.17;100.00;102025.31;4920317;28;20186;-77
2022/04/14 06:12:30;;;;;;;43.80;29.45;;;;;;;9.23;100.00;102023.72;4897545;29;20042;-77
2022/04/14 06:14:58;;;;;;;48.55;32.83;;;;;;;9.29;100.00;102018.59;4932045;28;20535;-76
2022/04/14 06:17:27;;;;;;;48.30;31.40;;;;;;;9.36;100.00;102017.94;4929360;29;20044;-77
2022/04/14 06:19:56;;;;;;;41.30;29.42;;;;;;;9.48;100.00;102020.88;4929622;29;20047;-77
2022/04/14 06:22:24;;;;;;;48.22;30.30;;;;;;;9.68;100.00;102007.34;4917165;29;20055;-76
2022/04/14 06:24:56;;;;;;;42.00;28.08;;;;;;;9.95;100.00;102007.13;4937385;28;20258;-77
2022/04/14 06:27:25;;;;;;;32.55;24.13;;;;;;;10.17;100.00;102010.28;4918285;28;20494;-76
2022/04/14 06:29:53;;;;;;;36.05;27.35;;;;;;;10.28;100.00;102012.31;4924286;29;20170;-77
2022/04/14 06:32:23;;;;;;;35.40;25.90;;;;;;;10.34;100.00;102015.13;4933622;28;20051;-76
2022/04/14 06:34:55;;;;;;;34.13;25.13;;;;;;;10.39;100.00;102028.38;4945112;28;20752;-77
2022/04/14 06:37:24;;;;;;;31.38;22.65;;;;;;;10.46;100.00;102025.03;4931489;29;20051;-76
2022/04/14 06:39:52;;;;;;;29.05;22.00;;;;;;;10.52;100.00;102024.28;4949419;28;20405;-77
2022/04/14 06:42:40;;;;;;;33.25;24.23;;;;;;;10.61;100.00;102029.78;4908504;28;20046;-77
2022/04/14 06:45:09;;;;;;;37.00;25.33;;;;;;;10.79;100.00;102031.00;4946805;28;20241;-77
2022/04/14 06:47:37;;;;;;;32.22;22.40;;;;;;;10.93;100.00;102022.53;4939291;28;20408;-77
2022/04/14 06:50:08;;;;;;;27.05;20.23;;;;;;;11.10;100.00;102027.28;4929935;29;20277;-77
2022/04/14 06:52:38;;;;;;;30.23;23.05;;;;;;;11.29;100.00;102032.03;4914629;29;20075;-77
2022/04/14 06:55:08;;;;;;;28.88;21.48;;;;;;;11.48;100.00;102021.84;4930390;28;20048;-77
2022/04/14 06:57:37;;;;;;;25.08;20.40;;;;;;;11.74;100.00;102024.03;4937322;28;20050;-76
2022/04/14 07:00:06;;;;;;;29.00;20.83;;;;;;;12.02;100.00;102035.97;4912730;29;20528;-77
2022/04/14 07:02:45;;;;;;;29.10;20.42;;;;;;;12.27;100.00;102026.69;4929380;28;20036;-77
2022/04/14 07:05:13;;;;;;;25.73;17.98;;;;;;;12.42;100.00;102026.91;4939929;28;20385;-76
2022/04/14 07:07:43;;;;;;;25.98;19.00;;;;;;;12.61;100.00;102027.19;4929059;29;20050;-77
2022/04/14 07:10:13;;;;;;;25.35;19.55;;;;;;;12.81;100.00;102024.78;4937518;28;20048;-77
2022/04/14 07:12:43;;;;;;;23.00;16.80;;;;;;;13.02;100.00;102025.06;4948071;28;20043;-77
2022/04/14 07:15:12;;;;;;;27.47;17.40;;;;;;;13.26;100.00;102024.44;4920359;29;20233;-76
2022/04/14 07:17:41;;;;;;;19.13;15.05;;;;;;;13.45;100.00;102019.38;4931906;28;20307;-77
2022/04/14 07:20:10;;;;;;;21.45;16.77;;;;;;;13.55;100.00;102026.53;4918239;29;20055;-77
2022/04/14 07:22:43;;;;;;;21.58;15.40;;;;;;;13.59;100.00;102024.78;4927064;29;20050;-77
2022/04/14 07:25:12;;;;;;;21.83;16.25;;;;;;;13.64;100.00;102025.72;4932087;28;20047;-77
2022/04/14 07:27:42;;;;;;;22.60;16.33;;;;;;;13.71;100.00;102022.28;4917064;28;20058;-77
2022/04/14 07:30:12;;;;;;;18.95;14.05;;;;;;;13.75;100.00;102020.53;4896878;29;20262;-76
2022/04/14 07:32:45;;;;;;;17.35;14.98;;;;;;;13.71;100.00;102024.91;4946570;28;20040;-77
2022/04/14 07:35:14;;;;;;;16.77;13.30;;;;;;;13.61;100.00;102023.03;4941660;28;20058;-76
2022/04/14 07:37:44;;;;;;;19.90;15.48;;;;;;;13.52;100.00;102026.50;4940630;28;20520;-77
2022/04/14 07:40:13;;;;;;;19.23;14.60;;;;;;;13.55;100.00;102025.66;4944330;28;20050;-77
2022/04/14 07:42:45;;;;;;;20.17;15.68;;;;;;;13.57;100.00;102029.19;4918363;29;20054;-77
2022/04/14 07:45:15;;;;;;;20.88;14.20;;;;;;;13.57;100.00;102026.53;4929617;28;20060;-77
2022/04/14 07:47:45;;;;;;;21.35;15.75;;;;;;;13.58;100.00;102018.63;4946118;28;20396;-77
2022/04/14 07:50:16;;;;;;;17.45;14.80;;;;;;;13.61;100.00;102020.41;4909197;29;20035;-76
2022/04/14 07:52:49;;;;;;;21.13;16.27;;;;;;;13.65;100.00;102019.59;4944711;28;20370;-77
2022/04/14 07:55:24;;;;;;;17.40;14.10;;;;;;;13.73;100.00;102019.66;4958699;28;20058;-77
2022/04/14 07:57:54;;;;;;;23.77;14.90;;;;;;;13.86;100.00;102026.81;4932389;28;20690;-77
2022/04/14 08:00:24;;;;;;;19.05;15.93;;;;;;;13.97;100.00;102024.25;4960689;28;20047;-77
2022/04/14 08:02:58;;;;;;;18.02;14.25;;;;;;;14.06;100.00;102029.63;4888680;29;20043;-78
2022/04/14 08:05:39;;;;;;;20.23;14.18;;;;;;;14.09;100.00;102024.34;4931884;28;20121;-77
2022/04/14 08:08:10;;;;;;;20.10;14.85;;;;;;;14.11;100.00;102032.31;4941824;28;20059;-76
2022/04/14 08:10:41;;;;;;;15.50;13.45;;;;;;;14.18;100.00;102032.38;4928183;28;20051;-77
2022/04/14 08:13:10;;;;;;;19.67;14.43;;;;;;;14.31;100.00;102038.66;4945381;28;20432;-77
2022/04/14 08:15:39;;;;;;;17.70;15.13;;;;;;;14.42;100.00;102028.09;4933265;28;20726;-77
2022/04/14 08:18:08;;;;;;;18.73;15.30;;;;;;;14.50;100.00;102031.69;4902653;29;20051;-76
2022/04/14 08:20:40;;;;;;;18.52;15.75;;;;;;;14.68;100.00;102030.94;4915063;29;20047;-77
2022/04/14 08:23:14;;;;;;;18.73;15.40;;;;;;;14.86;100.00;102023.94;4947539;28;20078;-77
2022/04/14 08:25:42;;;;;;;18.15;15.13;;;;;;;15.07;100.00;102020.50;4939817;28;20039;-77
2022/04/14 08:28:31;;;;;;;20.52;15.68;;;;;;;15.33;100.00;102023.19;4941312;29;20059;-77
2022/04/14 08:31:01;;;;;;;16.90;15.10;;;;;;;15.48;100.00;102019.69;4923128;28;20059;-76
2022/04/14 08:33:30;;;;;;;;;;;;;;;15.52;100.00;102022.38;4919607;28;20046;-77
2022/04/14 08:35:59;;;;;;;19.05;15.93;;;;;;;15.56;100.00;102032.09;4939628;28;20065;-77
2022/04/14 08:38:27;;;;;;;21.50;16.33;;;;;;;15.68;100.00;102025.03;4915958;29;20123;-76
2022/04/14 08:41:04;;;;;;;22.17;16.38;;;;;;;15.74;100.00;102039.22;4924846;29;20036;-77
2022/04/14 08:43:58;;;;;;;17.65;15.57;;;;;;;15.81;100.00;102042.78;4952138;28;20061;-78
2022/04/14 08:46:28;;;;;;;17.73;15.20;;;;;;;15.85;100.00;102033.94;4942770;28;20040;-77
2022/04/14 08:48:59;;;;;;;21.75;17.02;;;;;;;15.92;100.00;102029.50;4905033;29;20047;-78
2022/04/14 08:51:33;;;;;;;18.88;15.27;;;;;;;16.03;100.00;102033.06;4929415;29;20364;-77
2022/04/14 08:54:02;;;;;;;17.88;15.73;;;;;;;16.12;100.00;102029.47;4951167;28;20059;-77
2022/04/14 08:56:31;;;;;;;18.33;15.90;;;;;;;16.22;100.00;102027.69;4922947;29;20055;-78
2022/04/14 08:59:00;;;;;;;16.10;14.48;;;;;;;16.34;100.00;102023.25;4903915;29;20316;-77
2022/04/14 09:01:31;;;;;;;18.30;16.08;;;;;;;16.35;100.00;102024.13;4952858;28;20043;-77
2022/04/14 09:03:59;;;;;;;19.20;15.10;;;;;;;16.32;100.00;102032.13;4918643;28;24041;-77
2022/04/14 09:06:29;;;;;;;22.00;16.95;;;;;;;16.25;100.00;102022.38;4925731;29;20050;-77
2022/04/14 09:08:59;;;;;;;18.90;15.10;;;;;;;16.21;100.00;102024.16;4946729;29;20348;-77
2022/04/14 09:11:30;;;;;;;17.33;15.50;;;;;;;16.18;100.00;102019.75;4956763;28;20404;-78
2022/04/14 09:14:01;;;;;;;17.10;14.93;;;;;;;16.13;100.00;102017.97;4947501;28;20933;-77
2022/04/14 09:16:32;;;;;;;16.70;14.63;;;;;;;16.12;100.00;102018.84;4951831;29;20043;-77
2022/04/14 09:19:03;;;;;;;16.95;14.98;;;;;;;16.15;100.00;102025.06;4913924;28;20492;-77
2022/04/14 09:21:32;;;;;;;17.17;14.60;;;;;;;16.18;100.00;102018.84;4931412;29;20501;-78
2022/04/14 09:24:00;;;;;;;17.45;15.68;;;;;;;16.21;100.00;102021.50;4937611;28;20043;-77
2022/04/14 09:26:29;;;;;;;20.55;14.02;;;;;;;16.27;100.00;102017.94;4950954;28;20047;-77
2022/04/14 09:29:10;;;;;;;15.88;13.90;;;;;;;16.25;100.00;102020.59;4941752;28;20540;-77
2022/04/14 09:31:50;;;;;;;18.90;13.70;;;;;;;16.25;100.00;102020.59;4933399;29;20039;-78
2022/04/14 09:34:50;;;;;;;16.37;13.70;;;;;;;16.21;100.00;102021.50;4942762;28;20058;-77
2022/04/14 09:37:20;;;;;;;16.38;14.60;;;;;;;16.25;100.00;102023.25;4939642;28;20051;-77
2022/04/14 09:39:50;;;;;;;14.63;13.13;;;;;;;16.34;100.00;102031.22;4951005;28;20492;-78
2022/04/14 09:42:23;;;;;;;;;;;;;;;16.44;100.00;102031.22;4953114;28;20036;-77
2022/04/14 09:44:52;;;;;;;13.75;12.30;;;;;;;16.45;100.00;102027.69;4926630;29;19934;-78
2022/04/14 09:47:25;;;;;;;13.70;11.93;;;;;;;16.51;100.00;102028.53;4933309;29;20486;-77
2022/04/14 09:49:53;;;;;;;12.20;10.90;;;;;;;16.58;100.00;102029.41;4910955;28;20055;-77
2022/04/14 09:52:22;;;;;;;12.38;11.10;;;;;;;16.70;100.00;102039.13;4946735;29;20500;-77
2022/04/14 09:55:06;;;;;;;13.43;11.25;;;;;;;16.70;97.33;102040.00;4941028;28;20260;-78
2022/04/14 09:57:35;;;;;;;14.02;11.15;;;;;;;16.61;99.67;102039.16;4951402;28;20059;-78
2022/04/14 10:00:04;;;;;;;12.93;10.00;;;;;;;16.68;99.50;102031.13;4935884;29;20047;-77
2022/04/14 10:02:41;;;;;;;11.95;9.63;;;;;;;16.59;97.62;102044.47;4958253;28;20042;-78
2022/04/14 10:05:10;;;;;;;12.82;9.02;;;;;;;16.55;98.54;102048.03;4925679;29;20400;-77
2022/04/14 10:07:56;;;;;;;13.60;10.27;;;;;;;16.49;96.39;102051.59;4928405;28;20055;-79
2022/04/14 10:10:25;;;;;;;14.10;10.30;;;;;;;16.37;99.07;102060.50;4940770;28;20050;-77
2022/04/14 10:13:07;;;;;;;13.23;9.23;;;;;;;16.14;97.79;102048.97;4926441;29;20039;-77
2022/04/14 10:15:41;;;;;;;12.00;9.05;;;;;;;16.10;98.52;102052.53;4935469;29;20497;-78
2022/04/14 10:18:12;;;;;;;12.13;9.18;;;;;;;16.15;98.52;102053.44;4953533;28;20055;-77
2022/04/14 10:20:43;;;;;;;12.90;9.63;;;;;;;16.26;99.39;102051.63;4941766;28;20044;-77
2022/04/14 10:23:14;;;;;;;11.80;9.23;;;;;;;16.42;98.88;102049.81;4942599;28;20048;-78
2022/04/14 10:25:43;;;;;;;13.10;9.52;;;;;;;16.56;98.12;102049.81;4940598;28;20051;-78
2022/04/14 10:28:16;;;;;;;13.18;10.50;;;;;;;16.66;98.77;102054.22;4935997;29;20046;-77
2022/04/14 10:30:46;;;;;;;13.32;10.32;;;;;;;16.63;99.26;102053.34;4933152;29;20054;-78
2022/04/14 10:33:22;;;;;;;14.93;10.55;;;;;;;16.54;98.87;102057.81;4943083;29;20523;-77
2022/04/14 10:35:52;;;;;;;12.68;9.85;;;;;;;16.47;99.12;102047.19;4924987;29;20035;-77
2022/04/14 10:38:40;;;;;;;10.20;8.98;;;;;;;16.52;98.04;102053.34;4925987;28;20404;-77
2022/04/14 10:41:15;;;;;;;10.75;8.32;;;;;;;16.62;97.16;102052.47;4955546;28;20582;-77
2022/04/14 10:43:46;;;;;;;11.98;6.95;;;;;;;16.76;96.96;102047.97;4947730;28;20051;-77
2022/04/14 10:46:15;;;;;;;10.07;7.22;;;;;;;16.89;95.76;102061.28;4934232;29;20051;-77
2022/04/14 10:48:46;;;;;;;8.45;6.88;;;;;;;16.99;95.21;102054.13;4901598;29;20051;-78
2022/04/14 10:51:24;;;;;;;11.95;9.70;;;;;;;17.18;95.92;102060.25;4925004;28;20039;-77
2022/04/14 10:53:58;;;;;;;12.07;9.63;;;;;;;17.23;95.70;102059.34;4921545;28;20375;-77
2022/04/14 10:56:44;;;;;;;16.52;11.05;;;;;;;17.10;94.64;102060.28;4951066;28;20051;-77
2022/04/14 10:59:14;;;;;;;11.15;9.70;;;;;;;16.90;96.62;102063.03;4930310;29;20051;-77
2022/04/14 11:01:45;;;;;;;16.55;10.25;;;;;;;16.82;97.72;102056.81;4947383;29;20531;-77
2022/04/14 11:04:41;;;;;;;11.35;9.45;;;;;;;16.79;98.11;102073.69;4947323;28;20051;-77
2022/04/14 11:07:14;;;;;;;13.60;9.23;;;;;;;16.81;98.26;102068.38;4953610;28;23387;-77
2022/04/14 11:09:42;;;;;;;12.18;9.18;;;;;;;16.86;98.36;102067.50;4897302;29;20048;-81
2022/04/14 11:12:19;;;;;;;13.18;10.38;;;;;;;16.95;98.48;102063.91;4949085;28;20046;-78
2022/04/14 11:15:02;;;;;;;14.23;10.05;;;;;;;16.99;96.61;102070.97;4966864;28;20047;-78
2022/04/14 11:17:33;;;;;;;12.57;9.30;;;;;;;17.08;97.42;102078.94;4979235;28;20502;-77
2022/04/14 11:20:12;;;;;;;12.85;6.85;;;;;;;17.19;94.94;102075.38;4946784;28;21079;-78
2022/04/14 11:23:02;;;;;;;8.73;6.78;;;;;;;17.24;90.79;102074.44;4940638;28;20040;-81
2022/04/14 11:25:49;;;;;;;6.10;5.50;;;;;;;17.25;90.60;102065.53;4922008;28;20050;-79
2022/04/14 11:28:22;;;;;;;8.07;5.00;;;;;;;17.20;89.52;102077.13;4945221;28;20044;-79